sensor_id;sensor_type;location;lat;lon;timestamp;pressure;altitude;pressure_sealevel;temperature;humidity
10712;BME280;5407;51.234;6.804;2022-11-11T00:02:27;102403.88;;;22.86;45.84
10712;BME280;5407;51.234;6.804;2022-11-11T00:05:13;102414.09;;;22.86;45.83
10712;BME280;5407;51.234;6.804;2022-11-11T00:07:58;102435.34;;;22.85;45.90
10712;BME280;5407;51.234;6.804;2022-11-11T00:10:44;102432.56;;;22.85;45.87
10712;BME280;5407;51.234;6.804;2022-11-11T00:13:30;102437.28;;;22.85;45.74
10712;BME280;5407;51.234;6.804;2022-11-11T00:16:18;102448.28;;;22.85;45.82
10712;BME280;5407;51.234;6.804;2022-11-11T00:19:03;102453.00;;;22.84;45.83
10712;BME280;5407;51.234;6.804;2022-11-11T00:22:02;102447.50;;;22.84;45.79
10712;BME280;5407;51.234;6.804;2022-11-11T00:25:06;102448.28;;;22.85;45.84
10712;BME280;5407;51.234;6.804;2022-11-11T00:27:53;102453.78;;;22.85;45.83
10712;BME280;5407;51.234;6.804;2022-11-11T00:30:39;102442.78;;;22.85;45.90
10712;BME280;5407;51.234;6.804;2022-11-11T00:33:24;102448.28;;;22.85;46.01
10712;BME280;5407;51.234;6.804;2022-11-11T00:36:09;102437.28;;;22.85;45.96
10712;BME280;5407;51.234;6.804;2022-11-11T00:38:55;102441.59;;;22.86;45.90
10712;BME280;5407;51.234;6.804;2022-11-11T00:41:41;102432.56;;;22.85;45.83
10712;BME280;5407;51.234;6.804;2022-11-11T00:44:27;102430.59;;;22.86;45.86
10712;BME280;5407;51.234;6.804;2022-11-11T00:47:13;102442.78;;;22.85;45.88
10712;BME280;5407;51.234;6.804;2022-11-11T00:50:17;102433.34;;;22.86;45.87
10712;BME280;5407;51.234;6.804;2022-11-11T00:53:22;102430.59;;;22.86;45.99
10712;BME280;5407;51.234;6.804;2022-11-11T00:56:08;102434.53;;;22.85;45.87
10712;BME280;5407;51.234;6.804;2022-11-11T00:58:53;102433.34;;;22.86;45.88
10712;BME280;5407;51.234;6.804;2022-11-11T01:01:40;102437.28;;;22.85;45.98
10712;BME280;5407;51.234;6.804;2022-11-11T01:04:25;102449.09;;;22.85;45.83
10712;BME280;5407;51.234;6.804;2022-11-11T01:07:10;102449.47;;;22.84;45.87
10712;BME280;5407;51.234;6.804;2022-11-11T01:09:56;102450.25;;;22.84;45.97
10712;BME280;5407;51.234;6.804;2022-11-11T01:12:41;102446.72;;;22.84;45.99
10712;BME280;5407;51.234;6.804;2022-11-11T01:15:26;102454.97;;;22.84;46.02
10712;BME280;5407;51.234;6.804;2022-11-11T01:18:17;102464.81;;;22.85;45.87
10712;BME280;5407;51.234;6.804;2022-11-11T01:21:04;102462.44;;;22.83;45.88
10712;BME280;5407;51.234;6.804;2022-11-11T01:23:50;102461.28;;;22.84;45.86
10712;BME280;5407;51.234;6.804;2022-11-11T01:26:36;102453.38;;;22.83;45.85
10712;BME280;5407;51.234;6.804;2022-11-11T01:29:22;102456.13;;;22.83;45.85
10712;BME280;5407;51.234;6.804;2022-11-11T01:32:07;102457.72;;;22.84;45.87
10712;BME280;5407;51.234;6.804;2022-11-11T01:34:54;102459.69;;;22.83;45.86
10712;BME280;5407;51.234;6.804;2022-11-11T01:37:39;102446.72;;;22.84;45.90
10712;BME280;5407;51.234;6.804;2022-11-11T01:40:24;102452.22;;;22.84;45.83
10712;BME280;5407;51.234;6.804;2022-11-11T01:43:17;102450.63;;;22.83;45.81
10712;BME280;5407;51.234;6.804;2022-11-11T01:46:03;102459.69;;;22.83;45.81
10712;BME280;5407;51.234;6.804;2022-11-11T01:48:50;102456.94;;;22.83;45.69
10712;BME280;5407;51.234;6.804;2022-11-11T01:52:01;102457.72;;;22.84;45.72
10712;BME280;5407;51.234;6.804;2022-11-11T01:54:51;102460.47;;;22.84;45.85
10712;BME280;5407;51.234;6.804;2022-11-11T01:57:40;102465.97;;;22.84;45.70
10712;BME280;5407;51.234;6.804;2022-11-11T02:00:29;102456.94;;;22.83;45.75
10712;BME280;5407;51.234;6.804;2022-11-11T02:03:16;102467.94;;;22.83;45.79
10712;BME280;5407;51.234;6.804;2022-11-11T02:06:03;102461.63;;;22.83;45.69
10712;BME280;5407;51.234;6.804;2022-11-11T02:08:49;102467.16;;;22.83;45.79
10712;BME280;5407;51.234;6.804;2022-11-11T02:11:35;102467.16;;;22.83;45.75
10712;BME280;5407;51.234;6.804;2022-11-11T02:14:42;102462.81;;;22.82;45.86
10712;BME280;5407;51.234;6.804;2022-11-11T02:17:30;102462.03;;;22.81;45.82
10712;BME280;5407;51.234;6.804;2022-11-11T02:20:19;102462.81;;;22.82;45.81
10712;BME280;5407;51.234;6.804;2022-11-11T02:23:07;102457.31;;;22.82;45.81
10712;BME280;5407;51.234;6.804;2022-11-11T02:25:56;102457.31;;;22.82;45.82
10712;BME280;5407;51.234;6.804;2022-11-11T02:28:43;102458.88;;;22.83;45.77
10712;BME280;5407;51.234;6.804;2022-11-11T02:31:30;102461.63;;;22.83;45.77
10712;BME280;5407;51.234;6.804;2022-11-11T02:34:16;102454.56;;;22.82;45.80
10712;BME280;5407;51.234;6.804;2022-11-11T02:37:04;102455.72;;;22.81;45.72
10712;BME280;5407;51.234;6.804;2022-11-11T02:39:55;102447.47;;;22.81;45.68
10712;BME280;5407;51.234;6.804;2022-11-11T02:42:43;102453.78;;;22.81;45.77
10712;BME280;5407;51.234;6.804;2022-11-11T02:45:29;102448.28;;;22.81;45.74
10712;BME280;5407;51.234;6.804;2022-11-11T02:48:15;102459.28;;;22.81;45.86
10712;BME280;5407;51.234;6.804;2022-11-11T02:51:00;102447.47;;;22.81;45.69
10712;BME280;5407;51.234;6.804;2022-11-11T02:53:45;102447.47;;;22.81;45.75
10712;BME280;5407;51.234;6.804;2022-11-11T02:56:31;102459.66;;;22.80;45.69
10712;BME280;5407;51.234;6.804;2022-11-11T02:59:37;102465.16;;;22.80;45.73
10712;BME280;5407;51.234;6.804;2022-11-11T03:02:23;102463.97;;;22.81;45.74
10712;BME280;5407;51.234;6.804;2022-11-11T03:05:10;102457.69;;;22.80;45.78
10712;BME280;5407;51.234;6.804;2022-11-11T03:07:55;102454.94;;;22.80;45.67
10712;BME280;5407;51.234;6.804;2022-11-11T03:10:41;102458.47;;;22.81;45.68
10712;BME280;5407;51.234;6.804;2022-11-11T03:13:26;102442.38;;;22.79;45.72
10712;BME280;5407;51.234;6.804;2022-11-11T03:16:13;102446.69;;;22.80;45.69
10712;BME280;5407;51.234;6.804;2022-11-11T03:19:30;102451.03;;;22.81;45.67
10712;BME280;5407;51.234;6.804;2022-11-11T03:22:15;102463.97;;;22.81;45.76
10712;BME280;5407;51.234;6.804;2022-11-11T03:25:00;102465.97;;;22.80;45.84
10712;BME280;5407;51.234;6.804;2022-11-11T03:28:18;102463.97;;;22.81;45.67
10712;BME280;5407;51.234;6.804;2022-11-11T03:31:04;102463.97;;;22.81;45.68
10712;BME280;5407;51.234;6.804;2022-11-11T03:33:50;102465.97;;;22.80;45.78
10712;BME280;5407;51.234;6.804;2022-11-11T03:36:36;102462.41;;;22.80;45.65
10712;BME280;5407;51.234;6.804;2022-11-11T03:39:35;102455.72;;;22.81;45.68
10712;BME280;5407;51.234;6.804;2022-11-11T03:42:20;102441.97;;;22.81;45.66
10712;BME280;5407;51.234;6.804;2022-11-11T03:45:07;102441.97;;;22.81;45.73
10712;BME280;5407;51.234;6.804;2022-11-11T03:47:52;102445.13;;;22.83;45.89
10712;BME280;5407;51.234;6.804;2022-11-11T03:50:39;102438.44;;;22.84;45.92
10712;BME280;5407;51.234;6.804;2022-11-11T03:53:25;102445.13;;;22.83;45.97
10712;BME280;5407;51.234;6.804;2022-11-11T03:56:10;102443.53;;;22.82;46.21
10712;BME280;5407;51.234;6.804;2022-11-11T03:58:56;102448.69;;;22.83;46.27
10712;BME280;5407;51.234;6.804;2022-11-11T04:01:41;102446.34;;;22.85;46.26
10712;BME280;5407;51.234;6.804;2022-11-11T04:04:44;102445.94;;;22.87;46.18
10712;BME280;5407;51.234;6.804;2022-11-11T04:07:49;102446.75;;;22.87;46.18
10712;BME280;5407;51.234;6.804;2022-11-11T04:10:57;102451.47;;;22.90;46.28
10712;BME280;5407;51.234;6.804;2022-11-11T04:13:45;102454.59;;;22.89;46.26
10712;BME280;5407;51.234;6.804;2022-11-11T04:16:48;102453.06;;;22.91;46.11
10712;BME280;5407;51.234;6.804;2022-11-11T04:19:34;102460.53;;;22.91;46.06
10712;BME280;5407;51.234;6.804;2022-11-11T04:22:38;102467.19;;;22.90;46.10
10712;BME280;5407;51.234;6.804;2022-11-11T04:25:25;102465.22;;;22.87;46.11
10712;BME280;5407;51.234;6.804;2022-11-11T04:28:29;102466.38;;;22.86;46.16
10712;BME280;5407;51.234;6.804;2022-11-11T04:31:32;102460.47;;;22.84;46.15
10712;BME280;5407;51.234;6.804;2022-11-11T04:34:18;102463.22;;;22.84;46.16
10712;BME280;5407;51.234;6.804;2022-11-11T04:37:02;102464.38;;;22.83;46.17
10712;BME280;5407;51.234;6.804;2022-11-11T04:39:48;102466.38;;;22.82;46.27
10712;BME280;5407;51.234;6.804;2022-11-11T04:42:53;102469.50;;;22.81;46.16
10712;BME280;5407;51.234;6.804;2022-11-11T04:45:38;102465.97;;;22.80;46.17
10712;BME280;5407;51.234;6.804;2022-11-11T04:48:23;102467.13;;;22.79;46.23
10712;BME280;5407;51.234;6.804;2022-11-11T04:51:08;102467.13;;;22.79;46.16
10712;BME280;5407;51.234;6.804;2022-11-11T04:53:54;102461.63;;;22.79;46.21
10712;BME280;5407;51.234;6.804;2022-11-11T04:56:39;102463.97;;;22.81;46.14
10712;BME280;5407;51.234;6.804;2022-11-11T04:59:34;102467.91;;;22.80;46.27
10712;BME280;5407;51.234;6.804;2022-11-11T05:02:20;102460.81;;;22.79;46.18
10712;BME280;5407;51.234;6.804;2022-11-11T05:05:23;102458.88;;;22.79;46.15
10712;BME280;5407;51.234;6.804;2022-11-11T05:08:09;102451.00;;;22.78;46.11
10712;BME280;5407;51.234;6.804;2022-11-11T05:11:12;102443.53;;;22.78;46.13
10712;BME280;5407;51.234;6.804;2022-11-11T05:13:58;102452.16;;;22.77;46.12
10712;BME280;5407;51.234;6.804;2022-11-11T05:17:03;102448.22;;;22.78;46.20
10712;BME280;5407;51.234;6.804;2022-11-11T05:20:08;102460.06;;;22.78;46.34
10712;BME280;5407;51.234;6.804;2022-11-11T05:23:11;102444.31;;;22.79;46.25
10712;BME280;5407;51.234;6.804;2022-11-11T05:25:57;102453.75;;;22.78;46.20
10712;BME280;5407;51.234;6.804;2022-11-11T05:28:41;102456.88;;;22.76;46.30
10712;BME280;5407;51.234;6.804;2022-11-11T05:31:27;102460.41;;;22.77;46.09
10712;BME280;5407;51.234;6.804;2022-11-11T05:34:14;102465.91;;;22.77;46.36
10712;BME280;5407;51.234;6.804;2022-11-11T05:36:59;102469.84;;;22.76;46.13
10712;BME280;5407;51.234;6.804;2022-11-11T05:39:45;102476.94;;;22.77;46.10
10712;BME280;5407;51.234;6.804;2022-11-11T05:42:30;102483.59;;;22.76;46.08
10712;BME280;5407;51.234;6.804;2022-11-11T05:45:16;102487.53;;;22.75;46.04
10712;BME280;5407;51.234;6.804;2022-11-11T05:48:01;102482.03;;;22.75;46.15
10712;BME280;5407;51.234;6.804;2022-11-11T05:50:48;102490.28;;;22.75;46.15
10712;BME280;5407;51.234;6.804;2022-11-11T05:53:34;102491.84;;;22.76;46.12
10712;BME280;5407;51.234;6.804;2022-11-11T05:56:19;102489.91;;;22.76;46.27
10712;BME280;5407;51.234;6.804;2022-11-11T05:59:05;102486.75;;;22.78;46.02
10712;BME280;5407;51.234;6.804;2022-11-11T06:01:50;102488.75;;;22.77;46.12
10712;BME280;5407;51.234;6.804;2022-11-11T06:04:35;102489.91;;;22.76;46.12
10712;BME280;5407;51.234;6.804;2022-11-11T06:07:22;102490.28;;;22.75;46.08
10712;BME280;5407;51.234;6.804;2022-11-11T06:10:09;102496.94;;;22.74;46.09
10712;BME280;5407;51.234;6.804;2022-11-11T06:13:12;102497.75;;;22.74;46.08
10712;BME280;5407;51.234;6.804;2022-11-11T06:15:59;102495.38;;;22.73;46.11
10712;BME280;5407;51.234;6.804;2022-11-11T06:18:45;102495.00;;;22.74;45.94
10712;BME280;5407;51.234;6.804;2022-11-11T06:21:30;102495.38;;;22.73;46.03
10712;BME280;5407;51.234;6.804;2022-11-11T06:24:37;102506.38;;;22.73;46.10
10712;BME280;5407;51.234;6.804;2022-11-11T06:27:23;102511.88;;;22.73;46.06
10712;BME280;5407;51.234;6.804;2022-11-11T06:30:09;102507.53;;;22.72;46.05
10712;BME280;5407;51.234;6.804;2022-11-11T06:32:54;102503.22;;;22.71;46.08
10712;BME280;5407;51.234;6.804;2022-11-11T06:35:42;102515.00;;;22.71;46.21
10712;BME280;5407;51.234;6.804;2022-11-11T06:38:28;102506.78;;;22.75;46.36
10712;BME280;5407;51.234;6.804;2022-11-11T06:41:15;102515.44;;;22.77;46.23
10712;BME280;5407;51.234;6.804;2022-11-11T06:44:00;102514.69;;;22.80;46.19
10712;BME280;5407;51.234;6.804;2022-11-11T06:46:45;102526.13;;;22.82;46.20
10712;BME280;5407;51.234;6.804;2022-11-11T06:49:31;102524.56;;;22.84;46.16
10712;BME280;5407;51.234;6.804;2022-11-11T06:52:16;102530.06;;;22.84;46.01
10712;BME280;5407;51.234;6.804;2022-11-11T06:55:01;102540.31;;;22.87;46.11
10712;BME280;5407;51.234;6.804;2022-11-11T06:57:48;102543.84;;;22.88;46.04
10712;BME280;5407;51.234;6.804;2022-11-11T07:00:34;102545.44;;;22.89;45.97
10712;BME280;5407;51.234;6.804;2022-11-11T07:03:20;102545.44;;;22.89;46.10
10712;BME280;5407;51.234;6.804;2022-11-11T07:06:06;102550.94;;;22.89;45.99
10712;BME280;5407;51.234;6.804;2022-11-11T07:08:51;102558.03;;;22.90;46.09
10712;BME280;5407;51.234;6.804;2022-11-11T07:11:37;102555.28;;;22.90;46.01
10712;BME280;5407;51.234;6.804;2022-11-11T07:14:24;102556.09;;;22.90;45.91
10712;BME280;5407;51.234;6.804;2022-11-11T07:17:10;102558.03;;;22.90;46.05
10712;BME280;5407;51.234;6.804;2022-11-11T07:19:55;102558.03;;;22.90;45.91
10712;BME280;5407;51.234;6.804;2022-11-11T07:22:40;102563.13;;;22.88;45.94
10712;BME280;5407;51.234;6.804;2022-11-11T07:25:26;102562.72;;;22.86;45.98
10712;BME280;5407;51.234;6.804;2022-11-11T07:28:11;102556.81;;;22.84;45.87
10712;BME280;5407;51.234;6.804;2022-11-11T07:30:58;102556.81;;;22.84;46.19
10712;BME280;5407;51.234;6.804;2022-11-11T07:33:43;102562.31;;;22.84;46.03
10712;BME280;5407;51.234;6.804;2022-11-11T07:36:29;102574.88;;;22.81;46.00
10712;BME280;5407;51.234;6.804;2022-11-11T07:39:14;102565.81;;;22.81;46.15
10712;BME280;5407;51.234;6.804;2022-11-11T07:41:59;102566.97;;;22.80;46.08
10712;BME280;5407;51.234;6.804;2022-11-11T07:44:45;102575.63;;;22.78;46.13
10712;BME280;5407;51.234;6.804;2022-11-11T07:47:32;102578.38;;;22.78;46.09
10712;BME280;5407;51.234;6.804;2022-11-11T07:50:17;102581.13;;;22.78;46.19
10712;BME280;5407;51.234;6.804;2022-11-11T07:53:03;102580.34;;;22.78;46.07
10712;BME280;5407;51.234;6.804;2022-11-11T07:55:48;102585.84;;;22.78;46.06
10712;BME280;5407;51.234;6.804;2022-11-11T07:58:33;102583.47;;;22.76;46.02
10712;BME280;5407;51.234;6.804;2022-11-11T08:01:19;102598.00;;;22.77;46.16
10712;BME280;5407;51.234;6.804;2022-11-11T08:04:06;102601.56;;;22.77;46.17
10712;BME280;5407;51.234;6.804;2022-11-11T08:06:52;102607.06;;;22.77;46.01
10712;BME280;5407;51.234;6.804;2022-11-11T08:09:37;102600.78;;;22.77;46.02
10712;BME280;5407;51.234;6.804;2022-11-11T08:12:22;102606.28;;;22.77;45.93
10712;BME280;5407;51.234;6.804;2022-11-11T08:15:25;102589.75;;;22.77;45.88
10712;BME280;5407;51.234;6.804;2022-11-11T08:18:11;102591.34;;;22.78;45.89
10712;BME280;5407;51.234;6.804;2022-11-11T08:20:58;102582.66;;;22.76;46.11
10712;BME280;5407;51.234;6.804;2022-11-11T08:23:43;102584.25;;;22.77;45.97
10712;BME280;5407;51.234;6.804;2022-11-11T08:26:28;102582.66;;;22.76;45.94
10712;BME280;5407;51.234;6.804;2022-11-11T08:29:14;102592.50;;;22.77;45.93
10712;BME280;5407;51.234;6.804;2022-11-11T08:31:59;102599.19;;;22.76;46.04
10712;BME280;5407;51.234;6.804;2022-11-11T08:34:44;102591.34;;;22.78;46.03
10712;BME280;5407;51.234;6.804;2022-11-11T08:37:31;102601.16;;;22.75;46.13
10712;BME280;5407;51.234;6.804;2022-11-11T08:40:16;102609.41;;;22.75;46.15
10712;BME280;5407;51.234;6.804;2022-11-11T08:43:02;102607.03;;;22.74;46.13
10712;BME280;5407;51.234;6.804;2022-11-11T08:45:51;102600.34;;;22.75;46.15
10712;BME280;5407;51.234;6.804;2022-11-11T08:48:36;102594.84;;;22.75;46.12
10712;BME280;5407;51.234;6.804;2022-11-11T08:51:21;102598.41;;;22.75;45.89
10712;BME280;5407;51.234;6.804;2022-11-11T08:54:08;102596.81;;;22.74;46.09
10712;BME280;5407;51.234;6.804;2022-11-11T08:56:54;102602.31;;;22.74;46.11
10712;BME280;5407;51.234;6.804;2022-11-11T08:59:39;102604.69;;;22.76;46.12
10712;BME280;5407;51.234;6.804;2022-11-11T09:02:25;102596.03;;;22.74;46.05
10712;BME280;5407;51.234;6.804;2022-11-11T09:05:10;102601.53;;;22.74;46.21
10712;BME280;5407;51.234;6.804;2022-11-11T09:07:59;102605.44;;;22.73;46.11
10712;BME280;5407;51.234;6.804;2022-11-11T09:10:46;102600.34;;;22.75;46.08
10712;BME280;5407;51.234;6.804;2022-11-11T09:13:31;102600.34;;;22.75;46.05
10712;BME280;5407;51.234;6.804;2022-11-11T09:16:16;102605.84;;;22.75;46.08
10712;BME280;5407;51.234;6.804;2022-11-11T09:19:02;102615.69;;;22.76;46.11
10712;BME280;5407;51.234;6.804;2022-11-11T09:21:47;102620.44;;;22.75;46.11
10712;BME280;5407;51.234;6.804;2022-11-11T09:24:34;102603.09;;;22.75;46.00
10712;BME280;5407;51.234;6.804;2022-11-11T09:27:21;102605.84;;;22.75;46.15
10712;BME280;5407;51.234;6.804;2022-11-11T09:30:08;102609.03;;;22.77;45.97
10712;BME280;5407;51.234;6.804;2022-11-11T09:32:54;102604.69;;;22.76;46.04
10712;BME280;5407;51.234;6.804;2022-11-11T09:35:39;102608.25;;;22.76;46.06
10712;BME280;5407;51.234;6.804;2022-11-11T09:38:25;102600.78;;;22.77;45.98
10712;BME280;5407;51.234;6.804;2022-11-11T09:41:22;102606.28;;;22.77;46.02
10712;BME280;5407;51.234;6.804;2022-11-11T09:44:23;102613.75;;;22.76;45.98
10712;BME280;5407;51.234;6.804;2022-11-11T09:47:16;102613.34;;;22.78;46.06
10712;BME280;5407;51.234;6.804;2022-11-11T09:50:07;102610.59;;;22.78;46.01
10712;BME280;5407;51.234;6.804;2022-11-11T09:52:57;102611.03;;;22.80;46.02
10712;BME280;5407;51.234;6.804;2022-11-11T09:55:47;102611.44;;;22.82;46.02
10712;BME280;5407;51.234;6.804;2022-11-11T09:58:37;102605.50;;;22.80;46.12
10712;BME280;5407;51.234;6.804;2022-11-11T10:01:33;102617.69;;;22.79;46.21
10712;BME280;5407;51.234;6.804;2022-11-11T10:04:29;102619.66;;;22.78;46.22
10712;BME280;5407;51.234;6.804;2022-11-11T10:07:25;102619.25;;;22.76;46.39
10712;BME280;5407;51.234;6.804;2022-11-11T10:10:18;102621.19;;;22.76;46.63
10712;BME280;5407;51.234;6.804;2022-11-11T10:13:11;102620.44;;;22.79;47.24
10712;BME280;5407;51.234;6.804;2022-11-11T10:16:04;102618.53;;;22.83;47.34
10712;BME280;5407;51.234;6.804;2022-11-11T10:19:07;102626.44;;;22.88;47.57
10712;BME280;5407;51.234;6.804;2022-11-11T10:21:59;102628.06;;;22.92;47.97
10712;BME280;5407;51.234;6.804;2022-11-11T10:24:51;102624.91;;;22.94;48.27
10712;BME280;5407;51.234;6.804;2022-11-11T10:27:39;102627.34;;;22.99;48.18
10712;BME280;5407;51.234;6.804;2022-11-11T10:30:28;102618.34;;;23.02;47.99
10712;BME280;5407;51.234;6.804;2022-11-11T10:33:18;102624.25;;;23.04;47.68
10712;BME280;5407;51.234;6.804;2022-11-11T10:36:14;102620.75;;;23.07;47.73
10712;BME280;5407;51.234;6.804;2022-11-11T10:39:02;102623.91;;;23.09;47.66
10712;BME280;5407;51.234;6.804;2022-11-11T10:41:48;102616.09;;;23.11;47.33
10712;BME280;5407;51.234;6.804;2022-11-11T10:44:34;102617.66;;;23.12;47.46
10712;BME280;5407;51.234;6.804;2022-11-11T10:47:33;102625.53;;;23.10;47.91
10712;BME280;5407;51.234;6.804;2022-11-11T10:50:25;102619.25;;;23.13;47.60
10712;BME280;5407;51.234;6.804;2022-11-11T10:53:21;102619.66;;;23.15;47.29
10712;BME280;5407;51.234;6.804;2022-11-11T10:56:15;102632.25;;;23.16;47.35
10712;BME280;5407;51.234;6.804;2022-11-11T10:59:11;102626.75;;;23.16;47.32
10712;BME280;5407;51.234;6.804;2022-11-11T11:02:00;102626.00;;;23.19;47.24
10712;BME280;5407;51.234;6.804;2022-11-11T11:04:52;102624.81;;;23.20;47.16
10712;BME280;5407;51.234;6.804;2022-11-11T11:07:43;102625.63;;;23.20;47.08
10712;BME280;5407;51.234;6.804;2022-11-11T11:10:34;102625.63;;;23.20;47.07
10712;BME280;5407;51.234;6.804;2022-11-11T11:13:28;102629.16;;;23.21;46.88
10712;BME280;5407;51.234;6.804;2022-11-11T11:16:18;102631.91;;;23.21;46.94
10712;BME280;5407;51.234;6.804;2022-11-11T11:19:13;102627.56;;;23.20;46.94
10712;BME280;5407;51.234;6.804;2022-11-11T11:22:00;102632.66;;;23.18;46.79
10712;BME280;5407;51.234;6.804;2022-11-11T11:24:46;102626.00;;;23.19;47.00
10712;BME280;5407;51.234;6.804;2022-11-11T11:27:33;102634.25;;;23.19;47.16
10712;BME280;5407;51.234;6.804;2022-11-11T11:30:20;102628.75;;;23.19;47.17
10712;BME280;5407;51.234;6.804;2022-11-11T11:33:07;102624.00;;;23.19;47.29
10712;BME280;5407;51.234;6.804;2022-11-11T11:35:53;102627.56;;;23.20;47.26
10712;BME280;5407;51.234;6.804;2022-11-11T11:38:40;102624.44;;;23.21;47.27
10712;BME280;5407;51.234;6.804;2022-11-11T11:41:36;102624.81;;;23.20;47.42
10712;BME280;5407;51.234;6.804;2022-11-11T11:44:27;102618.94;;;23.21;47.45
10712;BME280;5407;51.234;6.804;2022-11-11T11:47:22;102618.53;;;23.23;47.55
10712;BME280;5407;51.234;6.804;2022-11-11T11:53:34;102608.34;;;23.23;47.12
10712;BME280;5407;51.234;6.804;2022-11-11T11:56:29;102602.44;;;23.25;47.18
10712;BME280;5407;51.234;6.804;2022-11-11T11:59:21;102603.66;;;23.27;47.08
10712;BME280;5407;51.234;6.804;2022-11-11T12:02:26;102593.00;;;23.26;47.06
10712;BME280;5407;51.234;6.804;2022-11-11T12:05:15;102594.56;;;23.27;46.90
10712;BME280;5407;51.234;6.804;2022-11-11T12:08:18;102590.66;;;23.28;47.03
10712;BME280;5407;51.234;6.804;2022-11-11T12:11:12;102593.41;;;23.28;46.83
10712;BME280;5407;51.234;6.804;2022-11-11T12:17:35;102587.94;;;23.31;46.97
10712;BME280;5407;51.234;6.804;2022-11-11T12:20:29;102586.75;;;23.32;46.88
10712;BME280;5407;51.234;6.804;2022-11-11T12:23:33;102590.28;;;23.33;46.91
10712;BME280;5407;51.234;6.804;2022-11-11T12:26:30;102576.16;;;23.34;46.86
10712;BME280;5407;51.234;6.804;2022-11-11T12:29:33;102571.81;;;23.37;47.05
10712;BME280;5407;51.234;6.804;2022-11-11T12:32:41;102569.88;;;23.41;46.86
10712;BME280;5407;51.234;6.804;2022-11-11T12:35:40;102567.97;;;23.45;46.88
10712;BME280;5407;51.234;6.804;2022-11-11T12:38:49;102569.97;;;23.48;46.91
10712;BME280;5407;51.234;6.804;2022-11-11T12:41:47;102562.88;;;23.50;46.80
10712;BME280;5407;51.234;6.804;2022-11-11T12:44:41;102561.34;;;23.53;46.83
10712;BME280;5407;51.234;6.804;2022-11-11T12:47:38;102551.91;;;23.54;46.74
10712;BME280;5407;51.234;6.804;2022-11-11T12:50:35;102547.16;;;23.54;46.79
10712;BME280;5407;51.234;6.804;2022-11-11T12:53:30;102544.81;;;23.53;46.69
10712;BME280;5407;51.234;6.804;2022-11-11T12:56:24;102543.22;;;23.52;46.91
10712;BME280;5407;51.234;6.804;2022-11-11T12:59:20;102548.31;;;23.50;46.96
10712;BME280;5407;51.234;6.804;2022-11-11T13:02:29;102549.50;;;23.49;46.80
10712;BME280;5407;51.234;6.804;2022-11-11T13:05:24;102538.09;;;23.50;46.83
10712;BME280;5407;51.234;6.804;2022-11-11T13:08:37;102540.84;;;23.50;46.80
10712;BME280;5407;51.234;6.804;2022-11-11T13:11:33;102544.00;;;23.49;46.97
10712;BME280;5407;51.234;6.804;2022-11-11T13:14:37;102538.47;;;23.49;46.79
10712;BME280;5407;51.234;6.804;2022-11-11T13:17:27;102544.75;;;23.49;46.63
10712;BME280;5407;51.234;6.804;2022-11-11T13:20:18;102542.41;;;23.51;46.93
10712;BME280;5407;51.234;6.804;2022-11-11T13:23:08;102543.22;;;23.52;46.94
10712;BME280;5407;51.234;6.804;2022-11-11T13:25:56;102543.22;;;23.52;46.77
10712;BME280;5407;51.234;6.804;2022-11-11T13:28:46;102548.72;;;23.52;46.96
10712;BME280;5407;51.234;6.804;2022-11-11T13:31:34;102539.28;;;23.56;46.70
10712;BME280;5407;51.234;6.804;2022-11-11T13:34:21;102538.53;;;23.59;46.80
10712;BME280;5407;51.234;6.804;2022-11-11T13:37:19;102539.72;;;23.62;46.95
10712;BME280;5407;51.234;6.804;2022-11-11T13:40:24;102536.97;;;23.65;46.88
10712;BME280;5407;51.234;6.804;2022-11-11T13:43:19;102542.13;;;23.67;46.94
10712;BME280;5407;51.234;6.804;2022-11-11T13:49:21;102547.22;;;23.65;46.98
10712;BME280;5407;51.234;6.804;2022-11-11T13:52:19;102543.66;;;23.61;46.84
10712;BME280;5407;51.234;6.804;2022-11-11T13:55:08;102543.25;;;23.59;46.91
10712;BME280;5407;51.234;6.804;2022-11-11T13:58:06;102533.81;;;23.60;46.88
10712;BME280;5407;51.234;6.804;2022-11-11T14:01:04;102529.47;;;23.59;46.87
10712;BME280;5407;51.234;6.804;2022-11-11T14:04:04;102536.94;;;23.58;46.78
10712;BME280;5407;51.234;6.804;2022-11-11T14:06:52;102536.16;;;23.58;46.83
10712;BME280;5407;51.234;6.804;2022-11-11T14:10:07;102534.59;;;23.57;46.83
10712;BME280;5407;51.234;6.804;2022-11-11T14:12:54;102530.25;;;23.56;46.75
10712;BME280;5407;51.234;6.804;2022-11-11T14:15:44;102529.84;;;23.57;46.84
10712;BME280;5407;51.234;6.804;2022-11-11T14:18:35;102530.66;;;23.58;46.75
10712;BME280;5407;51.234;6.804;2022-11-11T14:21:41;102534.59;;;23.57;46.59
10712;BME280;5407;51.234;6.804;2022-11-11T14:24:34;102534.59;;;23.57;46.52
10712;BME280;5407;51.234;6.804;2022-11-11T14:27:25;102525.91;;;23.55;46.63
10712;BME280;5407;51.234;6.804;2022-11-11T14:30:27;102531.44;;;23.55;46.66
10712;BME280;5407;51.234;6.804;2022-11-11T14:33:20;102531.44;;;23.55;46.65
10712;BME280;5407;51.234;6.804;2022-11-11T14:36:16;102531.44;;;23.55;46.61
10712;BME280;5407;51.234;6.804;2022-11-11T14:39:09;102531.44;;;23.55;46.56
10712;BME280;5407;51.234;6.804;2022-11-11T14:42:00;102531.44;;;23.55;46.57
10712;BME280;5407;51.234;6.804;2022-11-11T14:44:46;102534.19;;;23.55;46.51
10712;BME280;5407;51.234;6.804;2022-11-11T14:47:34;102534.59;;;23.57;46.30
10712;BME280;5407;51.234;6.804;2022-11-11T14:50:42;102534.59;;;23.57;46.42
10712;BME280;5407;51.234;6.804;2022-11-11T14:53:34;102527.91;;;23.58;46.59
10712;BME280;5407;51.234;6.804;2022-11-11T14:56:23;102536.94;;;23.58;46.49
10712;BME280;5407;51.234;6.804;2022-11-11T14:59:11;102530.66;;;23.58;46.27
10712;BME280;5407;51.234;6.804;2022-11-11T15:02:00;102533.81;;;23.60;46.37
10712;BME280;5407;51.234;6.804;2022-11-11T15:04:46;102531.88;;;23.64;46.34
10712;BME280;5407;51.234;6.804;2022-11-11T15:07:43;102530.69;;;23.65;46.39
10712;BME280;5407;51.234;6.804;2022-11-11T15:10:53;102536.25;;;23.68;46.21
10712;BME280;5407;51.234;6.804;2022-11-11T15:14:08;102533.09;;;23.70;46.33